Time;durP1;ratioP1;P1;durP2;ratioP2;P2;SDS_P1;SDS_P2;PMS_P1;PMS_P2;Temp;Humidity;BMP_temperature;BMP_pressure;BME280_temperature;BME280_humidity;BME280_pressure;Samples;Min_cycle;Max_cycle;Signal;HPM_P1;HPM_P2
2023/06/11 00:00:28;;;;;;;13.85;3.45;;;;;;;16.92;43.59;101355.56;4990458;28;20395;-68
2023/06/11 00:02:56;;;;;;;6.25;3.78;;;;;;;17.06;43.80;101353.84;4990190;28;20046;-69
2023/06/11 00:05:28;;;;;;;9.43;3.88;;;;;;;16.89;43.89;101355.94;4993445;28;20053;-68
2023/06/11 00:07:55;;;;;;;8.63;3.53;;;;;;;16.90;43.98;101363.03;4966938;28;20130;-68
2023/06/11 00:10:22;;;;;;;8.50;3.30;;;;;;;16.82;44.29;101355.00;4993402;28;20049;-68
2023/06/11 00:12:49;;;;;;;9.13;3.47;;;;;;;16.81;44.58;101356.00;4991872;28;20086;-68
2023/06/11 00:15:16;;;;;;;9.23;3.58;;;;;;;16.62;44.98;101374.47;4993910;28;20457;-69
2023/06/11 00:17:42;;;;;;;6.10;3.10;;;;;;;16.58;45.26;101375.88;4993225;28;20081;-68
2023/06/11 00:20:11;;;;;;;8.15;3.63;;;;;;;16.59;45.32;101368.59;4993126;28;20058;-68
2023/06/11 00:22:39;;;;;;;7.53;3.40;;;;;;;16.45;45.88;101370.22;4992073;28;20057;-68
2023/06/11 00:25:07;;;;;;;10.50;3.53;;;;;;;16.54;45.72;101371.88;4993333;28;20042;-68
2023/06/11 00:27:36;;;;;;;5.68;3.15;;;;;;;16.56;46.05;101366.25;4991748;28;20046;-68
2023/06/11 00:30:04;;;;;;;7.43;3.20;;;;;;;16.43;46.38;101366.84;4992675;28;20042;-68
2023/06/11 00:32:32;;;;;;;8.15;3.03;;;;;;;16.42;46.45;101362.47;4992784;28;20061;-68
2023/06/11 00:34:59;;;;;;;10.25;3.45;;;;;;;16.36;46.78;101365.88;4993531;28;20043;-68
2023/06/11 00:37:26;;;;;;;8.50;3.20;;;;;;;16.25;47.08;101369.88;4992640;28;20042;-68
2023/06/11 00:39:53;;;;;;;10.15;3.05;;;;;;;16.19;47.47;101368.75;4993262;28;20588;-68
2023/06/11 00:42:20;;;;;;;6.28;2.78;;;;;;;16.22;47.48;101363.97;4993657;28;20418;-68
2023/06/11 00:44:47;;;;;;;13.23;2.70;;;;;;;16.15;47.76;101371.97;4994084;28;20054;-68
2023/06/11 00:47:18;;;;;;;5.82;3.33;;;;;;;16.14;47.94;101364.91;4993490;28;20529;-68
2023/06/11 00:49:44;;;;;;;7.85;2.70;;;;;;;16.00;48.26;101366.53;4992854;28;20058;-70
2023/06/11 00:52:14;;;;;;;6.80;3.10;;;;;;;15.80;48.79;101368.00;4993887;28;20065;-68
2023/06/11 00:54:42;;;;;;;6.75;2.92;;;;;;;15.85;49.07;101373.75;4993141;28;20178;-68
2023/06/11 00:57:08;;;;;;;5.78;3.15;;;;;;;15.78;49.30;101368.19;4993036;28;20042;-67
2023/06/11 00:59:37;;;;;;;8.18;3.47;;;;;;;15.84;49.39;101366.63;4991364;28;20150;-67
2023/06/11 01:02:18;;;;;;;7.25;2.60;;;;;;;15.84;49.40;101370.16;4993512;28;20057;-68
2023/06/11 01:04:45;;;;;;;12.75;3.40;;;;;;;15.76;49.84;101370.22;4993696;28;20056;-68
2023/06/11 01:07:22;;;;;;;7.38;3.10;;;;;;;15.81;49.61;101369.69;4992537;28;20096;-68
2023/06/11 01:09:50;;;;;;;15.25;3.28;;;;;;;15.74;49.66;101371.44;4992449;28;20053;-68
2023/06/11 01:12:17;;;;;;;9.65;3.03;;;;;;;15.68;50.07;101379.25;4992986;28;20621;-68
2023/06/11 01:14:44;;;;;;;10.00;3.00;;;;;;;15.64;50.17;101369.81;4992370;28;20549;-69
2023/06/11 01:17:15;;;;;;;8.25;3.38;;;;;;;15.58;50.34;101384.00;4992488;28;20058;-68
2023/06/11 01:19:45;;;;;;;7.50;3.13;;;;;;;15.54;50.71;101376.44;4992934;28;20073;-68
2023/06/11 01:22:18;;;;;;;16.90;3.10;;;;;;;15.31;51.38;101385.31;4993449;28;20046;-68
2023/06/11 01:24:44;;;;;;;7.35;2.92;;;;;;;15.45;51.11;101383.72;4992741;28;20506;-68
2023/06/11 01:27:31;;;;;;;8.95;2.88;;;;;;;15.35;51.18;101383.09;4991897;28;20046;-68
2023/06/11 01:30:00;;;;;;;11.57;2.78;;;;;;;15.20;51.50;101375.72;4992548;28;20065;-68
2023/06/11 01:32:27;;;;;;;8.07;2.75;;;;;;;15.33;51.16;101386.00;4992846;28;20479;-67
2023/06/11 01:35:02;;;;;;;11.13;2.80;;;;;;;15.24;51.62;101384.31;4992685;28;20153;-68
2023/06/11 01:37:29;;;;;;;9.07;3.05;;;;;;;15.20;51.69;101388.41;4993254;28;20510;-69
2023/06/11 01:39:56;;;;;;;15.50;3.13;;;;;;;15.21;51.67;101388.22;4992674;28;20050;-67
2023/06/11 01:42:22;;;;;;;5.38;3.40;;;;;;;15.14;51.94;101392.63;4992940;28;20129;-68
2023/06/11 01:44:49;;;;;;;15.65;3.17;;;;;;;15.19;51.98;101387.56;4992825;28;20077;-68
2023/06/11 01:47:15;;;;;;;10.85;2.40;;;;;;;15.03;52.23;101384.91;4992849;28;20370;-68
2023/06/11 01:49:43;;;;;;;7.90;2.75;;;;;;;15.09;52.25;101384.22;4992092;28;20046;-68
2023/06/11 01:52:09;;;;;;;9.20;2.83;;;;;;;15.10;51.93;101391.28;4990635;28;20053;-68
2023/06/11 01:54:36;;;;;;;4.68;2.42;;;;;;;14.93;52.69;101384.25;4988851;28;20461;-68
2023/06/11 01:57:03;;;;;;;7.60;2.67;;;;;;;15.02;52.49;101388.63;4996769;28;20050;-66
2023/06/11 01:59:30;;;;;;;10.80;2.88;;;;;;;14.89;52.85;101383.75;5011066;28;20045;-69
2023/06/11 02:01:56;;;;;;;8.60;2.50;;;;;;;14.94;52.86;101394.03;5009383;28;20042;-68
2023/06/11 02:04:23;;;;;;;7.57;2.47;;;;;;;14.70;53.58;101389.50;5010421;28;20057;-68
2023/06/11 02:06:50;;;;;;;6.38;2.63;;;;;;;14.80;53.35;101383.94;5009847;28;20100;-68
2023/06/11 02:09:17;;;;;;;8.48;2.70;;;;;;;14.86;53.14;101384.09;5010348;28;20137;-68
2023/06/11 02:11:43;;;;;;;6.80;2.65;;;;;;;14.77;53.38;101387.81;5009444;28;20038;-67
2023/06/11 02:14:10;;;;;;;5.93;2.85;;;;;;;14.72;53.49;101390.22;5009604;28;20041;-68
2023/06/11 02:16:36;;;;;;;13.90;3.55;;;;;;;14.60;54.11;101392.41;5010518;28;20398;-68
2023/06/11 02:19:03;;;;;;;7.15;2.75;;;;;;;14.51;54.13;101388.84;5009543;28;20053;-67
2023/06/11 02:21:30;;;;;;;12.05;2.75;;;;;;;14.64;54.17;101390.19;5010259;28;20070;-68
2023/06/11 02:23:56;;;;;;;4.55;2.80;;;;;;;14.66;53.86;101385.44;5010442;28;20050;-68
2023/06/11 02:26:23;;;;;;;10.95;2.97;;;;;;;14.48;54.59;101391.03;5010409;28;20059;-68
2023/06/11 02:28:50;;;;;;;7.97;2.83;;;;;;;14.52;54.65;101395.91;5008738;28;20112;-68
2023/06/11 02:31:16;;;;;;;8.10;2.70;;;;;;;14.38;54.97;101388.50;5010204;28;20064;-69
2023/06/11 02:33:43;;;;;;;8.00;2.78;;;;;;;14.45;54.85;101394.91;5010814;28;20042;-68
2023/06/11 02:36:10;;;;;;;6.65;2.90;;;;;;;14.34;55.07;101394.44;4998821;28;20082;-68
2023/06/11 02:38:36;;;;;;;5.78;2.72;;;;;;;14.30;55.43;101394.75;4989901;28;20490;-68
2023/06/11 02:41:03;;;;;;;6.97;2.80;;;;;;;14.15;55.82;101396.44;4988863;28;20078;-68
2023/06/11 02:43:30;;;;;;;12.43;2.50;;;;;;;14.21;56.01;101405.72;4991521;28;20047;-68
2023/06/11 02:45:56;;;;;;;5.32;2.42;;;;;;;14.19;56.03;101397.78;4990671;28;20050;-68
2023/06/11 02:48:23;;;;;;;9.80;3.10;;;;;;;14.11;56.25;101400.47;4990820;28;20058;-67
2023/06/11 02:50:49;;;;;;;6.30;2.45;;;;;;;14.15;56.46;101401.84;4991199;28;20096;-68
2023/06/11 02:53:16;;;;;;;6.10;3.08;;;;;;;14.05;56.54;101398.47;4990124;28;20046;-68
2023/06/11 02:55:43;;;;;;;5.68;3.10;;;;;;;14.09;56.45;101405.22;4990217;28;20051;-68
2023/06/11 02:58:09;;;;;;;23.20;2.78;;;;;;;14.06;56.49;101400.13;4990379;28;20046;-68
2023/06/11 03:00:36;;;;;;;6.75;2.58;;;;;;;14.08;56.65;101400.81;4990822;28;20046;-70
2023/06/11 03:03:02;;;;;;;11.00;2.92;;;;;;;14.14;56.40;101402.84;4990927;28;20076;-65
2023/06/11 03:05:29;;;;;;;10.63;3.00;;;;;;;14.04;57.04;101402.97;4990824;28;20085;-68
2023/06/11 03:07:56;;;;;;;11.55;3.08;;;;;;;14.01;56.86;101399.78;4989904;28;20470;-68
2023/06/11 03:10:23;;;;;;;4.35;2.38;;;;;;;14.09;56.81;101405.22;4989571;28;20058;-68
2023/06/11 03:12:50;;;;;;;3.85;2.50;;;;;;;13.93;57.41;101402.47;4990329;28;20129;-68
2023/06/11 03:15:17;;;;;;;10.20;2.63;;;;;;;14.01;57.31;101407.88;4989704;28;20057;-68
2023/06/11 03:17:43;;;;;;;7.85;2.40;;;;;;;14.06;57.20;101409.06;4990420;28;20046;-68
2023/06/11 03:20:10;;;;;;;6.13;2.58;;;;;;;14.05;57.33;101410.09;4989713;28;20046;-68
2023/06/11 03:22:37;;;;;;;10.45;2.67;;;;;;;13.91;57.61;101418.84;4990133;28;20077;-68
2023/06/11 03:25:04;;;;;;;11.85;3.05;;;;;;;14.04;57.55;101418.34;4990014;28;20042;-68
2023/06/11 03:27:31;;;;;;;6.05;3.40;;;;;;;14.09;57.27;101418.69;4990259;28;20116;-68
2023/06/11 03:29:58;;;;;;;8.02;3.08;;;;;;;13.95;57.55;101424.75;4991040;28;20073;-68
2023/06/11 03:32:24;;;;;;;5.10;2.53;;;;;;;14.02;57.68;101423.91;4989831;28;20046;-67
2023/06/11 03:34:51;;;;;;;16.70;2.63;;;;;;;13.99;57.50;101428.78;4989773;28;20057;-67
2023/06/11 03:37:18;;;;;;;9.73;2.90;;;;;;;13.93;57.45;101419.50;4990536;28;20414;-68
2023/06/11 03:39:45;;;;;;;13.15;2.90;;;;;;;13.92;57.63;101422.38;4990007;28;20058;-68
2023/06/11 03:42:11;;;;;;;18.40;3.58;;;;;;;13.92;57.86;101423.22;4989921;28;20100;-68
2023/06/11 03:44:38;;;;;;;10.93;2.78;;;;;;;13.83;58.40;101419.63;4989653;28;20410;-67
2023/06/11 03:47:04;;;;;;;3.85;2.38;;;;;;;13.79;57.90;101429.06;4990094;28;20054;-67
2023/06/11 03:49:31;;;;;;;12.88;2.70;;;;;;;13.80;58.25;101425.38;4990915;28;20051;-68
2023/06/11 03:51:58;;;;;;;9.85;2.90;;;;;;;13.93;58.47;101429.44;4989546;28;20046;-68
2023/06/11 03:54:25;;;;;;;6.55;2.97;;;;;;;13.98;57.88;101427.97;4989640;28;20100;-68
2023/06/11 03:56:51;;;;;;;4.28;2.97;;;;;;;13.89;58.03;101426.22;4989600;28;20120;-68
2023/06/11 03:59:18;;;;;;;8.48;2.67;;;;;;;14.01;58.00;101432.16;4990849;28;20050;-68
2023/06/11 04:01:44;;;;;;;8.73;2.60;;;;;;;13.87;58.16;101430.09;5010193;28;20477;-68
2023/06/11 04:04:11;;;;;;;7.82;2.42;;;;;;;13.91;58.02;101434.16;5009677;28;20046;-69
2023/06/11 04:06:39;;;;;;;7.65;2.58;;;;;;;13.80;58.13;101436.19;5008874;28;20050;-68
2023/06/11 04:09:06;;;;;;;13.43;2.42;;;;;;;13.91;58.18;101426.06;5009550;28;20049;-68
2023/06/11 04:11:33;;;;;;;11.38;2.70;;;;;;;13.93;58.38;101435.69;5010147;28;20058;-66
2023/06/11 04:13:59;;;;;;;11.07;2.78;;;;;;;13.94;58.17;101432.00;5010547;28;20050;-68
2023/06/11 04:16:26;;;;;;;7.00;2.60;;;;;;;13.90;58.43;101437.88;5009974;28;20077;-67
2023/06/11 04:18:53;;;;;;;6.25;2.47;;;;;;;13.97;59.08;101438.91;5009717;28;20053;-68
2023/06/11 04:21:19;;;;;;;6.28;2.42;;;;;;;13.92;58.69;101443.94;5010223;28;20074;-68
2023/06/11 04:23:46;;;;;;;4.80;2.33;;;;;;;13.86;58.74;101447.28;5010175;28;20054;-68
2023/06/11 04:26:15;;;;;;;10.32;3.08;;;;;;;13.92;58.92;101444.78;5009599;28;20128;-68
2023/06/11 04:28:45;;;;;;;11.52;2.13;;;;;;;13.85;59.16;101456.41;5009732;28;20056;-68
2023/06/11 04:31:11;;;;;;;9.07;2.63;;;;;;;13.90;59.12;101444.09;5009660;28;20046;-68
2023/06/11 04:33:38;;;;;;;5.47;2.33;;;;;;;14.04;59.29;101448.00;5009817;28;20046;-68
2023/06/11 04:36:07;;;;;;;9.25;2.83;;;;;;;14.05;58.84;101452.41;5010049;28;20053;-68
2023/06/11 04:38:36;;;;;;;11.13;2.42;;;;;;;14.03;58.82;101455.25;5009903;28;20052;-68
2023/06/11 04:41:06;;;;;;;10.73;2.78;;;;;;;13.96;59.59;101454.25;4992750;28;20050;-68
2023/06/11 04:43:33;;;;;;;10.95;3.17;;;;;;;14.29;58.54;101451.63;5010175;28;20041;-68
2023/06/11 04:46:03;;;;;;;12.48;2.65;;;;;;;14.12;58.87;101460.69;4992650;28;20053;-68
2023/06/11 04:48:34;;;;;;;11.98;2.97;;;;;;;14.25;58.72;101444.84;5010246;28;20042;-68
2023/06/11 04:51:01;;;;;;;7.57;2.40;;;;;;;13.99;58.83;101447.69;5012617;28;20038;-68
2023/06/11 04:53:29;;;;;;;10.30;2.63;;;;;;;14.10;59.31;101447.34;5013700;28;20046;-68
2023/06/11 04:55:58;;;;;;;12.48;2.92;;;;;;;14.08;58.90;101449.41;5013077;28;20092;-68
2023/06/11 04:58:30;;;;;;;6.78;2.85;;;;;;;14.19;59.32;101442.84;5013468;28;20044;-68
2023/06/11 05:00:57;;;;;;;17.08;2.75;;;;;;;14.41;58.80;101454.81;5012341;28;20049;-68
2023/06/11 05:03:26;;;;;;;6.55;2.40;;;;;;;14.36;58.88;101444.53;5012866;28;20587;-69
2023/06/11 05:05:54;;;;;;;8.65;2.28;;;;;;;14.20;59.07;101452.59;5012764;28;20478;-68
2023/06/11 05:08:24;;;;;;;8.35;2.80;;;;;;;14.49;58.68;101452.13;5012506;28;20128;-68
2023/06/11 05:10:56;;;;;;;7.50;2.65;;;;;;;14.35;58.77;101452.78;5012399;28;20060;-67
2023/06/11 05:13:26;;;;;;;13.35;2.47;;;;;;;14.39;59.15;101446.03;4995475;28;20077;-67
2023/06/11 05:15:54;;;;;;;6.38;2.15;;;;;;;14.28;59.15;101452.59;4993324;28;20051;-67
2023/06/11 05:18:21;;;;;;;7.70;2.67;;;;;;;14.33;59.08;101446.72;4993298;28;20096;-69
2023/06/11 05:20:50;;;;;;;11.55;2.90;;;;;;;14.18;59.58;101457.31;4993331;28;20050;-68
2023/06/11 05:23:18;;;;;;;14.88;3.17;;;;;;;14.46;58.92;101452.44;4992651;28;20046;-68
2023/06/11 05:25:47;;;;;;;7.50;2.35;;;;;;;14.54;59.09;101457.88;4995947;28;20058;-68
2023/06/11 05:28:15;;;;;;;5.82;2.58;;;;;;;14.62;58.83;101449.75;5012730;28;20478;-68
2023/06/11 05:30:47;;;;;;;8.73;2.55;;;;;;;14.52;59.06;101447.22;5012491;28;20136;-69
2023/06/11 05:33:13;;;;;;;6.10;2.50;;;;;;;14.48;59.01;101447.75;5012980;28;20092;-69
2023/06/11 05:35:43;;;;;;;7.35;2.63;;;;;;;14.63;59.19;101443.34;5005175;28;20418;-68
2023/06/11 05:38:10;;;;;;;9.60;2.40;;;;;;;14.48;59.47;101453.13;4993200;28;20042;-69
2023/06/11 05:40:37;;;;;;;7.18;2.75;;;;;;;14.70;59.08;101451.59;4992852;28;20051;-68
2023/06/11 05:43:04;;;;;;;6.93;2.47;;;;;;;14.34;60.00;101453.81;4992843;28;20050;-68
2023/06/11 05:45:31;;;;;;;15.98;3.00;;;;;;;14.41;59.87;101450.25;4992659;28;20073;-69
2023/06/11 05:47:59;;;;;;;4.90;2.42;;;;;;;14.56;59.45;101457.69;4992700;28;20046;-68
2023/06/11 05:50:26;;;;;;;6.65;2.63;;;;;;;14.72;59.64;101458.56;4992821;28;20046;-68
2023/06/11 05:52:53;;;;;;;10.25;3.00;;;;;;;14.94;59.54;101454.31;4992294;28;20213;-68
2023/06/11 05:55:19;;;;;;;7.03;2.72;;;;;;;14.95;58.81;101452.47;4992601;28;20046;-68
2023/06/11 05:57:46;;;;;;;11.30;3.10;;;;;;;14.84;59.36;101458.22;4992787;28;20050;-67
2023/06/11 06:00:13;;;;;;;9.40;2.92;;;;;;;14.94;59.81;101461.59;4992590;28;20093;-67
2023/06/11 06:02:39;;;;;;;15.13;3.28;;;;;;;14.93;58.92;101455.34;4991997;28;20050;-69
2023/06/11 06:05:09;;;;;;;7.45;2.42;;;;;;;14.96;59.28;101462.25;4992511;28;20046;-69
2023/06/11 06:07:37;;;;;;;15.07;3.55;;;;;;;14.99;59.05;101459.22;4992258;28;20074;-68
2023/06/11 06:10:04;;;;;;;9.02;2.65;;;;;;;14.99;58.69;101462.75;4992486;28;20050;-68
2023/06/11 06:12:30;;;;;;;11.52;3.65;;;;;;;14.98;58.50;101457.50;4993093;28;20050;-69
2023/06/11 06:14:58;;;;;;;5.93;2.92;;;;;;;15.00;59.07;101460.91;4993433;28;20046;-67
2023/06/11 06:17:24;;;;;;;7.53;2.67;;;;;;;14.96;59.44;101459.56;5012258;28;20045;-69
2023/06/11 06:19:51;;;;;;;12.82;3.00;;;;;;;15.25;59.17;101462.53;5011514;28;20050;-70
2023/06/11 06:22:18;;;;;;;10.00;2.95;;;;;;;15.17;58.72;101465.25;5011225;28;20046;-70
2023/06/11 06:24:45;;;;;;;11.68;3.10;;;;;;;15.33;58.34;101464.38;5010946;28;20203;-70
2023/06/11 06:27:11;;;;;;;14.25;2.90;;;;;;;15.40;58.21;101459.97;5010423;28;20057;-68
2023/06/11 06:29:40;;;;;;;11.23;3.25;;;;;;;15.32;58.26;101464.53;5010862;28;20046;-68
2023/06/11 06:32:08;;;;;;;10.20;3.22;;;;;;;15.41;58.16;101452.69;5011048;28;20058;-68
2023/06/11 06:34:35;;;;;;;25.08;2.97;;;;;;;15.49;58.86;101463.47;5011205;28;20045;-70
2023/06/11 06:37:02;;;;;;;6.53;2.97;;;;;;;15.82;57.82;101466.94;4993922;28;20391;-69
2023/06/11 06:39:28;;;;;;;8.55;2.97;;;;;;;15.61;57.98;101467.50;4991479;28;20101;-70
2023/06/11 06:41:55;;;;;;;6.60;2.85;;;;;;;16.14;57.57;101460.47;4990549;28;20054;-67
2023/06/11 06:44:21;;;;;;;14.88;3.00;;;;;;;16.43;56.95;101458.91;4991508;28;20046;-69
2023/06/11 06:46:49;;;;;;;9.65;3.20;;;;;;;16.36;56.71;101460.66;4991401;28;20462;-68
2023/06/11 06:49:15;;;;;;;12.50;3.22;;;;;;;16.12;55.67;101465.22;4991218;28;20409;-68
2023/06/11 06:51:42;;;;;;;11.57;3.25;;;;;;;16.07;55.77;101462.22;4991318;28;20181;-67
2023/06/11 06:54:08;;;;;;;7.68;3.17;;;;;;;16.14;55.47;101455.06;4990843;28;20116;-68
2023/06/11 06:56:35;;;;;;;13.60;3.83;;;;;;;16.15;56.13;101455.91;4998770;28;20041;-67
2023/06/11 06:59:02;;;;;;;7.78;3.00;;;;;;;16.60;55.91;101455.09;5010992;28;20053;-68
2023/06/11 07:01:28;;;;;;;10.50;3.85;;;;;;;16.64;55.04;101466.41;5009919;28;20461;-68
2023/06/11 07:03:55;;;;;;;11.23;3.05;;;;;;;16.51;55.53;101466.19;5010691;28;20120;-68
2023/06/11 07:06:22;;;;;;;14.93;3.40;;;;;;;16.84;55.36;101459.44;5010667;28;20532;-68
2023/06/11 07:08:48;;;;;;;8.20;2.97;;;;;;;16.69;54.78;101466.72;5010614;28;20049;-68
2023/06/11 07:11:15;;;;;;;20.00;3.47;;;;;;;16.71;54.66;101466.50;5010659;28;20067;-67
2023/06/11 07:13:42;;;;;;;13.23;3.40;;;;;;;16.94;54.87;101456.47;5009653;28;20046;-69
2023/06/11 07:16:08;;;;;;;14.43;3.60;;;;;;;17.18;53.51;101459.97;5010381;28;20100;-67
2023/06/11 07:18:35;;;;;;;14.60;3.10;;;;;;;17.34;52.99;101463.38;5010749;28;20050;-68
2023/06/11 07:21:02;;;;;;;8.73;2.63;;;;;;;17.48;53.46;101466.28;5010989;28;20183;-68
2023/06/11 07:23:28;;;;;;;16.45;3.47;;;;;;;17.78;51.91;101467.06;5010411;28;20317;-68
2023/06/11 07:25:55;;;;;;;8.73;3.20;;;;;;;18.17;52.15;101455.00;5010077;28;20046;-67
2023/06/11 07:28:22;;;;;;;12.48;3.33;;;;;;;18.49;50.41;101456.41;5009804;28;20094;-68
2023/06/11 07:30:48;;;;;;;10.10;3.40;;;;;;;18.74;50.37;101454.09;5010259;28;20049;-68
2023/06/11 07:33:17;;;;;;;5.57;3.38;;;;;;;18.66;49.22;101457.81;5010341;28;20116;-68
2023/06/11 07:35:44;;;;;;;7.47;3.20;;;;;;;18.74;50.01;101457.66;5003378;28;20050;-68
2023/06/11 07:38:10;;;;;;;11.60;3.10;;;;;;;19.05;48.84;101452.91;4990170;28;20502;-68
2023/06/11 07:40:37;;;;;;;12.75;3.65;;;;;;;19.63;48.11;101461.63;4990507;28;20104;-67
2023/06/11 07:43:03;;;;;;;12.95;3.20;;;;;;;19.49;46.78;101458.81;4990251;28;20076;-65
2023/06/11 07:45:30;;;;;;;9.82;3.10;;;;;;;20.13;46.70;101463.06;4990953;28;20403;-68
2023/06/11 07:47:56;;;;;;;12.73;3.30;;;;;;;20.79;45.43;101461.50;4990263;28;20042;-67
2023/06/11 07:50:23;;;;;;;14.43;3.30;;;;;;;20.79;44.82;101456.88;4990174;28;20062;-67
2023/06/11 07:52:50;;;;;;;15.88;3.40;;;;;;;20.86;44.76;101459.59;4990242;28;20469;-68
2023/06/11 07:55:16;;;;;;;10.20;3.25;;;;;;;20.67;44.58;101453.97;4990071;28;20050;-68
2023/06/11 07:57:43;;;;;;;14.18;3.00;;;;;;;20.98;44.58;101451.66;4990250;28;20105;-68
2023/06/11 08:00:12;;;;;;;9.18;3.20;;;;;;;20.52;44.69;101453.31;4990224;28;20097;-67
2023/06/11 08:02:40;;;;;;;9.98;3.30;;;;;;;21.32;43.29;101454.13;4990041;28;20132;-68
2023/06/11 08:05:10;;;;;;;16.35;4.07;;;;;;;21.57;43.06;101451.53;4989225;28;20133;-67
2023/06/11 08:07:36;;;;;;;12.25;2.92;;;;;;;21.17;43.15;101453.50;4989164;28;20435;-67
2023/06/11 08:10:03;;;;;;;10.20;3.20;;;;;;;21.08;43.05;101452.06;5000514;28;20104;-67
2023/06/11 08:12:30;;;;;;;12.38;3.53;;;;;;;21.44;43.33;101450.72;5008725;28;20092;-68
2023/06/11 08:14:56;;;;;;;13.07;3.70;;;;;;;21.09;42.52;101449.09;5007993;28;20046;-68
2023/06/11 08:17:23;;;;;;;11.18;3.63;;;;;;;21.02;42.30;101452.88;5008705;28;20099;-68
2023/06/11 08:19:50;;;;;;;13.20;3.63;;;;;;;21.06;42.56;101443.22;5008510;28;20456;-68
2023/06/11 08:22:16;;;;;;;15.32;3.42;;;;;;;20.92;42.40;101448.69;5008568;28;20046;-68
2023/06/11 08:24:43;;;;;;;10.75;3.90;;;;;;;20.85;43.00;101452.50;5009447;28;20046;-67
2023/06/11 08:27:09;;;;;;;14.10;3.75;;;;;;;20.92;43.06;101448.69;5012219;28;20486;-67
2023/06/11 08:29:36;;;;;;;11.82;3.10;;;;;;;21.07;43.81;101450.34;5012535;28;20445;-67
2023/06/11 08:32:03;;;;;;;12.88;3.53;;;;;;;21.33;42.78;101450.34;5013159;28;20046;-67
2023/06/11 08:34:30;;;;;;;12.38;3.58;;;;;;;21.92;42.12;101448.47;5012807;28;20125;-67
2023/06/11 08:36:57;;;;;;;8.32;3.25;;;;;;;22.23;40.82;101439.44;4995137;28;20096;-67
2023/06/11 08:39:23;;;;;;;11.75;2.90;;;;;;;22.71;40.21;101436.16;4992740;28;20081;-67
2023/06/11 08:41:50;;;;;;;8.00;3.40;;;;;;;22.46;40.19;101440.72;4992453;28;20340;-68
2023/06/11 08:44:16;;;;;;;18.95;3.40;;;;;;;22.98;40.35;101434.03;4992262;28;20050;-68
2023/06/11 08:46:44;;;;;;;12.18;3.55;;;;;;;23.32;38.82;101436.41;4991955;28;20121;-68
2023/06/11 08:49:22;;;;;;;4.93;3.03;;;;;;;23.64;38.16;101434.34;4992430;28;20058;-68
2023/06/11 08:51:49;;;;;;;10.57;3.60;;;;;;;23.41;38.76;101443.28;4992902;28;20061;-67
2023/06/11 08:54:17;;;;;;;11.38;3.00;;;;;;;23.98;38.23;101430.94;4992522;28;20074;-69
2023/06/11 08:56:44;;;;;;;12.23;2.63;;;;;;;24.04;37.79;101433.84;4992758;28;20145;-68
2023/06/11 08:59:11;;;;;;;12.40;3.40;;;;;;;24.74;36.69;101431.25;4992571;28;20057;-68
2023/06/11 09:01:39;;;;;;;11.95;3.55;;;;;;;24.41;36.05;101432.66;4992341;28;20050;-68
2023/06/11 09:04:05;;;;;;;5.70;3.30;;;;;;;24.37;36.97;101433.31;4992688;28;20050;-68
2023/06/11 09:06:33;;;;;;;8.80;3.13;;;;;;;23.72;36.67;101426.66;4998892;28;20410;-70
2023/06/11 09:09:02;;;;;;;7.35;3.20;;;;;;;22.85;37.72;101427.84;5012253;28;20073;-69
2023/06/11 09:11:37;;;;;;;10.63;3.35;;;;;;;22.54;38.89;101429.56;5012348;28;20057;-68
2023/06/11 09:14:05;;;;;;;15.73;3.42;;;;;;;23.46;37.92;101432.44;5012342;28;20041;-68
2023/06/11 09:16:43;;;;;;;10.40;3.67;;;;;;;23.42;37.84;101423.88;5012380;28;20080;-69
2023/06/11 09:19:19;;;;;;;16.42;3.72;;;;;;;23.37;37.84;101418.25;5011544;28;20046;-67
2023/06/11 09:21:52;;;;;;;13.07;3.50;;;;;;;24.35;36.88;101417.13;5011597;28;20398;-68
2023/06/11 09:24:20;;;;;;;5.57;3.22;;;;;;;23.54;37.20;101421.22;5011884;28;20451;-68
2023/06/11 09:26:53;;;;;;;11.40;3.88;;;;;;;23.64;37.40;101421.50;5010959;28;20401;-69
2023/06/11 09:29:21;;;;;;;11.20;3.90;;;;;;;23.69;37.03;101416.16;5010109;28;20053;-67
2023/06/11 09:31:47;;;;;;;13.32;4.05;;;;;;;23.78;37.76;101424.94;5010860;28;20417;-68
2023/06/11 09:34:21;;;;;;;8.40;3.25;;;;;;;24.42;36.56;101417.03;5011415;28;20053;-68
2023/06/11 09:36:48;;;;;;;8.02;3.92;;;;;;;24.77;36.40;101418.97;4994125;28;20046;-69
2023/06/11 09:39:16;;;;;;;8.85;3.42;;;;;;;25.59;35.42;101411.53;4991552;28;20093;-69
2023/06/11 09:41:50;;;;;;;9.98;3.97;;;;;;;25.13;35.11;101409.66;4992363;28;20104;-69
2023/06/11 09:44:17;;;;;;;5.05;3.17;;;;;;;25.47;34.54;101416.16;4992426;28;20101;-69
2023/06/11 09:46:46;;;;;;;14.05;3.85;;;;;;;25.52;34.55;101415.47;4991724;28;20054;-68
2023/06/11 09:49:13;;;;;;;13.68;3.70;;;;;;;25.58;34.63;101411.72;4991832;28;20050;-68
2023/06/11 09:51:41;;;;;;;8.55;3.53;;;;;;;25.79;34.20;101412.97;4991011;28;20050;-69
2023/06/11 09:54:09;;;;;;;9.35;3.45;;;;;;;25.77;34.26;101404.16;4991340;28;20054;-67
2023/06/11 09:56:37;;;;;;;5.88;3.58;;;;;;;25.65;34.13;101408.84;4991096;28;20418;-68
2023/06/11 09:59:05;;;;;;;7.03;3.42;;;;;;;25.97;33.22;101395.47;4992240;28;20054;-69
2023/06/11 10:01:33;;;;;;;8.32;3.53;;;;;;;26.67;32.58;101407.94;4991264;28;20050;-69
2023/06/11 10:04:00;;;;;;;9.68;3.70;;;;;;;26.12;32.52;101411.41;4991412;28;20046;-68
2023/06/11 10:06:35;;;;;;;13.20;3.63;;;;;;;25.83;33.45;101409.50;4990687;28;20072;-68
2023/06/11 10:09:06;;;;;;;11.50;4.03;;;;;;;25.41;34.13;101417.16;4991800;28;20070;-69
2023/06/11 10:11:38;;;;;;;12.10;3.55;;;;;;;26.01;33.46;101400.22;4991790;28;20105;-72
2023/06/11 10:14:11;;;;;;;14.10;3.83;;;;;;;26.85;32.68;101401.38;4990882;28;20508;-66
2023/06/11 10:16:38;;;;;;;13.30;3.95;;;;;;;27.43;32.17;101400.81;4991802;28;20043;-68
2023/06/11 10:19:09;;;;;;;10.60;3.85;;;;;;;28.20;30.35;101396.94;4991880;28;20050;-69
2023/06/11 10:21:44;;;;;;;10.80;3.70;;;;;;;27.09;31.16;101388.22;4990587;28;20046;-67
2023/06/11 10:24:24;;;;;;;9.85;3.40;;;;;;;25.89;32.79;101393.94;4998019;28;20042;-68
2023/06/11 10:27:12;;;;;;;6.35;3.72;;;;;;;25.59;32.48;101403.28;5010306;28;20045;-68
2023/06/11 10:29:49;;;;;;;13.00;3.95;;;;;;;25.46;32.98;101402.69;5011033;28;20129;-68
2023/06/11 10:32:16;;;;;;;9.23;3.55;;;;;;;25.75;33.63;101392.56;5011089;28;20112;-68
2023/06/11 10:34:44;;;;;;;11.20;3.70;;;;;;;26.08;32.82;101389.91;5011184;28;20556;-68
2023/06/11 10:37:12;;;;;;;16.25;4.00;;;;;;;25.94;32.99;101385.78;4991561;28;20046;-68
2023/06/11 10:39:51;;;;;;;7.93;4.20;;;;;;;25.78;34.01;101375.59;5002545;28;20038;-68
2023/06/11 10:42:34;;;;;;;13.52;4.03;;;;;;;25.31;33.97;101394.97;5010880;28;20046;-68
2023/06/11 10:45:00;;;;;;;10.98;3.95;;;;;;;25.39;33.63;101386.34;5010878;28;20046;-68
2023/06/11 10:47:31;;;;;;;8.32;3.85;;;;;;;25.58;34.35;101382.34;5010127;28;20446;-69
2023/06/11 10:50:08;;;;;;;9.00;3.90;;;;;;;25.52;33.67;101374.25;5008729;28;20045;-68
2023/06/11 10:52:51;;;;;;;8.77;3.53;;;;;;;25.38;33.75;101379.19;5010339;28;20092;-66
2023/06/11 10:55:20;;;;;;;10.40;4.38;;;;;;;24.91;34.93;101391.06;5010032;28;20133;-68
2023/06/11 10:57:51;;;;;;;13.57;4.53;;;;;;;25.46;34.15;101380.72;5010975;28;20049;-68
2023/06/11 11:00:18;;;;;;;;;;;;;;;24.31;35.55;101384.94;5009810;28;20062;-69
2023/06/11 11:02:46;;;;;;;11.70;4.10;;;;;;;23.77;34.46;101381.31;5009743;28;20357;-68
2023/06/11 11:05:13;;;;;;;6.63;3.70;;;;;;;23.73;33.99;101379.00;5010915;28;20505;-69
2023/06/11 11:07:44;;;;;;;9.60;4.70;;;;;;;24.26;33.41;101373.81;5010732;28;20049;-69
2023/06/11 11:10:13;;;;;;;8.38;4.40;;;;;;;24.14;33.39;101374.63;5010639;28;20042;-68
2023/06/11 11:12:41;;;;;;;5.18;3.92;;;;;;;23.88;33.61;101370.38;4993031;28;20050;-68
2023/06/11 11:15:11;;;;;;;8.48;4.20;;;;;;;23.96;34.21;101374.72;5010108;28;20096;-68
2023/06/11 11:17:40;;;;;;;10.07;5.13;;;;;;;24.40;33.87;101376.16;5010724;28;20121;-68
2023/06/11 11:20:09;;;;;;;6.90;4.32;;;;;;;24.38;33.65;101382.91;5010543;28;20056;-68
2023/06/11 11:22:37;;;;;;;7.32;4.53;;;;;;;24.51;34.32;101379.97;5010791;28;20046;-65
2023/06/11 11:25:05;;;;;;;8.93;4.22;;;;;;;23.79;35.09;101380.03;5011271;28;20068;-69